sensor_id;sensor_type;location;lat;lon;timestamp;P1;durP1;ratioP1;P2;durP2;ratioP2
60078;SDS011;45951;45.824;8.824;2023-04-03T00:04:40;1.13;;;0.45;;
60078;SDS011;45951;45.824;8.824;2023-04-03T00:10:40;0.40;;;0.40;;
60078;SDS011;45951;45.824;8.824;2023-04-03T00:16:41;0.55;;;0.50;;
60078;SDS011;45951;45.824;8.824;2023-04-03T00:22:41;1.05;;;0.50;;
60078;SDS011;45951;45.824;8.824;2023-04-03T00:28:41;0.85;;;0.55;;
60078;SDS011;45951;45.824;8.824;2023-04-03T00:34:42;0.82;;;0.50;;
60078;SDS011;45951;45.824;8.824;2023-04-03T00:40:43;0.40;;;0.40;;
60078;SDS011;45951;45.824;8.824;2023-04-03T00:46:45;1.42;;;0.60;;
60078;SDS011;45951;45.824;8.824;2023-04-03T00:52:45;0.88;;;0.60;;
60078;SDS011;45951;45.824;8.824;2023-04-03T00:58:53;0.52;;;0.40;;
60078;SDS011;45951;45.824;8.824;2023-04-03T01:04:56;0.45;;;0.45;;
60078;SDS011;45951;45.824;8.824;2023-04-03T01:10:56;0.35;;;0.35;;
60078;SDS011;45951;45.824;8.824;2023-04-03T01:16:57;0.30;;;0.30;;
60078;SDS011;45951;45.824;8.824;2023-04-03T01:29:10;0.40;;;0.40;;
60078;SDS011;45951;45.824;8.824;2023-04-03T01:35:11;0.57;;;0.50;;
60078;SDS011;45951;45.824;8.824;2023-04-03T01:41:12;0.63;;;0.40;;
60078;SDS011;45951;45.824;8.824;2023-04-03T01:47:12;0.50;;;0.50;;
60078;SDS011;45951;45.824;8.824;2023-04-03T01:53:12;0.45;;;0.45;;
60078;SDS011;45951;45.824;8.824;2023-04-03T01:59:13;0.40;;;0.40;;
60078;SDS011;45951;45.824;8.824;2023-04-03T02:05:14;0.50;;;0.50;;
60078;SDS011;45951;45.824;8.824;2023-04-03T02:11:15;0.65;;;0.50;;
60078;SDS011;45951;45.824;8.824;2023-04-03T02:17:16;0.43;;;0.43;;
60078;SDS011;45951;45.824;8.824;2023-04-03T02:23:16;0.52;;;0.50;;
60078;SDS011;45951;45.824;8.824;2023-04-03T02:29:16;0.50;;;0.40;;
60078;SDS011;45951;45.824;8.824;2023-04-03T02:35:16;0.30;;;0.30;;
60078;SDS011;45951;45.824;8.824;2023-04-03T02:41:17;0.65;;;0.50;;
60078;SDS011;45951;45.824;8.824;2023-04-03T02:47:17;0.50;;;0.50;;
60078;SDS011;45951;45.824;8.824;2023-04-03T02:53:18;0.60;;;0.50;;
60078;SDS011;45951;45.824;8.824;2023-04-03T02:59:18;2.60;;;0.60;;
60078;SDS011;45951;45.824;8.824;2023-04-03T03:05:19;0.73;;;0.50;;
60078;SDS011;45951;45.824;8.824;2023-04-03T03:11:19;0.60;;;0.50;;
60078;SDS011;45951;45.824;8.824;2023-04-03T03:17:19;0.43;;;0.40;;
60078;SDS011;45951;45.824;8.824;2023-04-03T03:23:20;0.50;;;0.50;;
60078;SDS011;45951;45.824;8.824;2023-04-03T03:29:21;0.98;;;0.60;;
60078;SDS011;45951;45.824;8.824;2023-04-03T03:35:21;0.75;;;0.55;;
60078;SDS011;45951;45.824;8.824;2023-04-03T03:41:21;0.95;;;0.60;;
60078;SDS011;45951;45.824;8.824;2023-04-03T03:47:22;0.75;;;0.68;;
60078;SDS011;45951;45.824;8.824;2023-04-03T03:53:22;0.60;;;0.60;;
60078;SDS011;45951;45.824;8.824;2023-04-03T03:59:22;2.58;;;0.90;;
60078;SDS011;45951;45.824;8.824;2023-04-03T04:05:23;1.08;;;0.45;;
60078;SDS011;45951;45.824;8.824;2023-04-03T04:11:23;0.40;;;0.40;;
60078;SDS011;45951;45.824;8.824;2023-04-03T04:17:23;0.45;;;0.43;;
60078;SDS011;45951;45.824;8.824;2023-04-03T04:23:24;0.40;;;0.40;;
60078;SDS011;45951;45.824;8.824;2023-04-03T04:29:24;0.40;;;0.40;;
60078;SDS011;45951;45.824;8.824;2023-04-03T04:35:24;0.35;;;0.35;;
60078;SDS011;45951;45.824;8.824;2023-04-03T04:41:25;0.47;;;0.47;;
60078;SDS011;45951;45.824;8.824;2023-04-03T04:47:26;0.80;;;0.35;;
60078;SDS011;45951;45.824;8.824;2023-04-03T04:53:29;0.73;;;0.60;;
60078;SDS011;45951;45.824;8.824;2023-04-03T04:59:29;0.52;;;0.40;;
60078;SDS011;45951;45.824;8.824;2023-04-03T05:05:30;0.45;;;0.45;;
60078;SDS011;45951;45.824;8.824;2023-04-03T05:11:30;0.35;;;0.35;;
60078;SDS011;45951;45.824;8.824;2023-04-03T05:17:30;0.53;;;0.40;;
60078;SDS011;45951;45.824;8.824;2023-04-03T05:23:31;0.45;;;0.40;;
60078;SDS011;45951;45.824;8.824;2023-04-03T05:29:31;0.40;;;0.40;;
60078;SDS011;45951;45.824;8.824;2023-04-03T05:35:32;0.40;;;0.40;;
60078;SDS011;45951;45.824;8.824;2023-04-03T05:41:32;0.40;;;0.40;;
60078;SDS011;45951;45.824;8.824;2023-04-03T05:47:32;1.80;;;0.45;;
60078;SDS011;45951;45.824;8.824;2023-04-03T05:53:34;1.13;;;1.10;;
60078;SDS011;45951;45.824;8.824;2023-04-03T05:59:36;1.00;;;1.00;;
60078;SDS011;45951;45.824;8.824;2023-04-03T06:05:36;50.17;;;8.40;;
60078;SDS011;45951;45.824;8.824;2023-04-03T06:11:37;1.60;;;0.80;;
60078;SDS011;45951;45.824;8.824;2023-04-03T06:17:37;2.05;;;0.80;;
60078;SDS011;45951;45.824;8.824;2023-04-03T06:23:37;1.70;;;1.08;;
60078;SDS011;45951;45.824;8.824;2023-04-03T06:29:38;0.52;;;0.52;;
60078;SDS011;45951;45.824;8.824;2023-04-03T06:35:38;24.17;;;3.27;;
60078;SDS011;45951;45.824;8.824;2023-04-03T06:41:38;15.10;;;2.00;;
60078;SDS011;45951;45.824;8.824;2023-04-03T06:47:39;1.13;;;0.75;;
60078;SDS011;45951;45.824;8.824;2023-04-03T06:53:39;1.95;;;0.90;;
60078;SDS011;45951;45.824;8.824;2023-04-03T06:59:39;7.55;;;2.40;;
60078;SDS011;45951;45.824;8.824;2023-04-03T07:05:40;0.52;;;0.52;;
60078;SDS011;45951;45.824;8.824;2023-04-03T07:11:40;9.43;;;1.27;;
60078;SDS011;45951;45.824;8.824;2023-04-03T07:17:41;10.00;;;1.83;;
60078;SDS011;45951;45.824;8.824;2023-04-03T07:23:41;0.80;;;0.80;;
60078;SDS011;45951;45.824;8.824;2023-04-03T07:29:42;1.15;;;1.15;;
60078;SDS011;45951;45.824;8.824;2023-04-03T07:35:43;1.20;;;1.20;;
60078;SDS011;45951;45.824;8.824;2023-04-03T07:41:43;2.95;;;2.20;;
60078;SDS011;45951;45.824;8.824;2023-04-03T07:47:43;1.05;;;1.05;;
60078;SDS011;45951;45.824;8.824;2023-04-03T07:53:44;3.30;;;2.03;;
60078;SDS011;45951;45.824;8.824;2023-04-03T07:59:44;6.35;;;3.58;;
60078;SDS011;45951;45.824;8.824;2023-04-03T08:05:45;5.90;;;2.90;;
60078;SDS011;45951;45.824;8.824;2023-04-03T08:11:47;5.97;;;3.65;;
60078;SDS011;45951;45.824;8.824;2023-04-03T08:17:47;6.60;;;4.23;;
60078;SDS011;45951;45.824;8.824;2023-04-03T08:23:48;8.25;;;4.38;;
60078;SDS011;45951;45.824;8.824;2023-04-03T08:29:50;7.82;;;4.00;;
60078;SDS011;45951;45.824;8.824;2023-04-03T08:35:51;6.40;;;3.00;;
60078;SDS011;45951;45.824;8.824;2023-04-03T08:41:52;5.63;;;3.00;;
60078;SDS011;45951;45.824;8.824;2023-04-03T08:53:58;4.22;;;2.30;;
60078;SDS011;45951;45.824;8.824;2023-04-03T09:00:07;4.35;;;2.55;;
60078;SDS011;45951;45.824;8.824;2023-04-03T09:06:26;4.15;;;2.33;;
60078;SDS011;45951;45.824;8.824;2023-04-03T09:12:53;5.40;;;3.00;;
60078;SDS011;45951;45.824;8.824;2023-04-03T09:19:14;5.90;;;3.58;;
60078;SDS011;45951;45.824;8.824;2023-04-03T09:25:17;5.95;;;2.78;;
60078;SDS011;45951;45.824;8.824;2023-04-03T09:31:21;6.88;;;3.17;;
60078;SDS011;45951;45.824;8.824;2023-04-03T09:37:40;8.55;;;2.70;;
60078;SDS011;45951;45.824;8.824;2023-04-03T09:43:51;4.88;;;2.60;;
60078;SDS011;45951;45.824;8.824;2023-04-03T10:02:22;4.18;;;2.47;;
60078;SDS011;45951;45.824;8.824;2023-04-03T10:14:36;3.75;;;2.28;;
60078;SDS011;45951;45.824;8.824;2023-04-03T10:20:44;3.78;;;2.40;;
60078;SDS011;45951;45.824;8.824;2023-04-03T10:26:57;3.22;;;2.05;;
60078;SDS011;45951;45.824;8.824;2023-04-03T10:39:15;4.45;;;2.42;;
60078;SDS011;45951;45.824;8.824;2023-04-03T10:51:45;4.60;;;2.20;;
60078;SDS011;45951;45.824;8.824;2023-04-03T10:57:47;4.13;;;2.72;;
60078;SDS011;45951;45.824;8.824;2023-04-03T11:03:49;7.35;;;3.95;;
60078;SDS011;45951;45.824;8.824;2023-04-03T11:09:57;4.43;;;2.70;;
60078;SDS011;45951;45.824;8.824;2023-04-03T11:16:03;4.70;;;2.40;;
60078;SDS011;45951;45.824;8.824;2023-04-03T11:28:14;4.32;;;2.45;;
60078;SDS011;45951;45.824;8.824;2023-04-03T11:34:24;8.40;;;3.10;;
60078;SDS011;45951;45.824;8.824;2023-04-03T11:40:32;6.32;;;2.85;;
60078;SDS011;45951;45.824;8.824;2023-04-03T11:53:02;6.70;;;3.83;;
60078;SDS011;45951;45.824;8.824;2023-04-03T12:05:24;4.80;;;3.13;;
60078;SDS011;45951;45.824;8.824;2023-04-03T12:11:31;5.13;;;3.23;;
60078;SDS011;45951;45.824;8.824;2023-04-03T12:17:32;5.57;;;3.83;;
60078;SDS011;45951;45.824;8.824;2023-04-03T12:23:33;4.57;;;3.20;;
60078;SDS011;45951;45.824;8.824;2023-04-03T12:54:45;5.63;;;3.70;;
60078;SDS011;45951;45.824;8.824;2023-04-03T13:00:46;4.55;;;3.25;;
60078;SDS011;45951;45.824;8.824;2023-04-03T13:06:58;7.72;;;4.43;;
60078;SDS011;45951;45.824;8.824;2023-04-03T13:13:06;5.50;;;3.50;;
60078;SDS011;45951;45.824;8.824;2023-04-03T13:19:16;5.10;;;3.45;;
60078;SDS011;45951;45.824;8.824;2023-04-03T13:25:17;6.30;;;3.67;;
60078;SDS011;45951;45.824;8.824;2023-04-03T13:31:20;4.10;;;2.20;;
60078;SDS011;45951;45.824;8.824;2023-04-03T13:37:28;2.33;;;1.58;;
60078;SDS011;45951;45.824;8.824;2023-04-03T13:43:31;5.28;;;3.47;;
60078;SDS011;45951;45.824;8.824;2023-04-03T13:55:51;5.80;;;3.70;;
60078;SDS011;45951;45.824;8.824;2023-04-03T14:08:02;2.30;;;1.55;;
60078;SDS011;45951;45.824;8.824;2023-04-03T14:14:16;1.20;;;1.02;;
60078;SDS011;45951;45.824;8.824;2023-04-03T14:20:20;1.55;;;0.95;;
60078;SDS011;45951;45.824;8.824;2023-04-03T14:26:22;5.18;;;3.13;;
60078;SDS011;45951;45.824;8.824;2023-04-03T14:32:25;4.80;;;3.10;;
60078;SDS011;45951;45.824;8.824;2023-04-03T14:38:27;6.22;;;3.60;;
60078;SDS011;45951;45.824;8.824;2023-04-03T14:44:29;6.43;;;3.78;;
60078;SDS011;45951;45.824;8.824;2023-04-03T14:50:29;5.40;;;3.47;;
60078;SDS011;45951;45.824;8.824;2023-04-03T14:56:30;6.10;;;3.83;;
60078;SDS011;45951;45.824;8.824;2023-04-03T15:02:34;5.20;;;4.03;;
60078;SDS011;45951;45.824;8.824;2023-04-03T15:08:36;7.13;;;4.28;;
60078;SDS011;45951;45.824;8.824;2023-04-03T15:14:37;5.53;;;3.45;;
60078;SDS011;45951;45.824;8.824;2023-04-03T15:20:37;5.30;;;3.58;;
60078;SDS011;45951;45.824;8.824;2023-04-03T15:26:37;6.47;;;3.67;;
60078;SDS011;45951;45.824;8.824;2023-04-03T15:32:38;5.82;;;3.40;;
60078;SDS011;45951;45.824;8.824;2023-04-03T15:38:38;6.13;;;3.63;;
60078;SDS011;45951;45.824;8.824;2023-04-03T15:44:38;4.87;;;3.33;;
60078;SDS011;45951;45.824;8.824;2023-04-03T15:50:39;5.47;;;3.60;;
60078;SDS011;45951;45.824;8.824;2023-04-03T15:56:40;4.85;;;3.50;;
60078;SDS011;45951;45.824;8.824;2023-04-03T16:02:40;5.88;;;3.63;;
60078;SDS011;45951;45.824;8.824;2023-04-03T16:08:41;5.28;;;3.47;;
60078;SDS011;45951;45.824;8.824;2023-04-03T16:14:42;4.50;;;3.00;;
60078;SDS011;45951;45.824;8.824;2023-04-03T16:20:42;5.07;;;3.28;;
60078;SDS011;45951;45.824;8.824;2023-04-03T16:26:43;4.72;;;3.25;;
60078;SDS011;45951;45.824;8.824;2023-04-03T16:32:44;8.50;;;4.10;;
60078;SDS011;45951;45.824;8.824;2023-04-03T16:38:45;6.90;;;3.20;;
60078;SDS011;45951;45.824;8.824;2023-04-03T16:44:45;4.75;;;3.05;;
60078;SDS011;45951;45.824;8.824;2023-04-03T16:50:46;5.07;;;3.50;;
60078;SDS011;45951;45.824;8.824;2023-04-03T16:56:48;6.20;;;4.07;;
60078;SDS011;45951;45.824;8.824;2023-04-03T17:02:48;9.00;;;3.78;;
60078;SDS011;45951;45.824;8.824;2023-04-03T17:08:49;6.60;;;3.60;;
60078;SDS011;45951;45.824;8.824;2023-04-03T17:14:50;6.00;;;3.67;;
60078;SDS011;45951;45.824;8.824;2023-04-03T17:20:51;5.63;;;3.65;;
60078;SDS011;45951;45.824;8.824;2023-04-03T17:26:51;5.25;;;3.10;;
60078;SDS011;45951;45.824;8.824;2023-04-03T17:32:51;6.15;;;3.40;;
60078;SDS011;45951;45.824;8.824;2023-04-03T17:38:52;5.72;;;3.55;;
60078;SDS011;45951;45.824;8.824;2023-04-03T17:44:52;6.20;;;3.35;;
60078;SDS011;45951;45.824;8.824;2023-04-03T17:50:52;7.53;;;3.83;;
60078;SDS011;45951;45.824;8.824;2023-04-03T17:56:52;6.32;;;3.40;;
60078;SDS011;45951;45.824;8.824;2023-04-03T18:02:53;6.72;;;3.53;;
60078;SDS011;45951;45.824;8.824;2023-04-03T18:08:55;6.20;;;2.88;;
60078;SDS011;45951;45.824;8.824;2023-04-03T18:14:58;7.22;;;3.75;;
60078;SDS011;45951;45.824;8.824;2023-04-03T18:20:59;6.43;;;3.45;;
60078;SDS011;45951;45.824;8.824;2023-04-03T18:27:01;5.73;;;3.27;;
60078;SDS011;45951;45.824;8.824;2023-04-03T18:33:05;10.18;;;3.85;;
60078;SDS011;45951;45.824;8.824;2023-04-03T18:39:05;6.40;;;3.08;;
60078;SDS011;45951;45.824;8.824;2023-04-03T18:45:06;6.90;;;3.55;;
60078;SDS011;45951;45.824;8.824;2023-04-03T18:51:09;6.90;;;3.85;;
60078;SDS011;45951;45.824;8.824;2023-04-03T18:57:10;7.53;;;3.60;;
60078;SDS011;45951;45.824;8.824;2023-04-03T19:03:11;6.18;;;3.25;;
60078;SDS011;45951;45.824;8.824;2023-04-03T19:09:12;8.23;;;3.78;;
60078;SDS011;45951;45.824;8.824;2023-04-03T19:15:13;5.93;;;3.50;;
60078;SDS011;45951;45.824;8.824;2023-04-03T19:21:14;9.15;;;3.97;;
60078;SDS011;45951;45.824;8.824;2023-04-03T19:27:15;7.97;;;3.92;;
60078;SDS011;45951;45.824;8.824;2023-04-03T19:33:15;6.55;;;3.47;;
60078;SDS011;45951;45.824;8.824;2023-04-03T19:39:16;5.60;;;3.30;;
60078;SDS011;45951;45.824;8.824;2023-04-03T19:45:16;7.77;;;3.83;;
60078;SDS011;45951;45.824;8.824;2023-04-03T19:51:18;5.80;;;3.45;;
60078;SDS011;45951;45.824;8.824;2023-04-03T19:57:19;5.03;;;3.07;;
60078;SDS011;45951;45.824;8.824;2023-04-03T20:03:19;7.00;;;3.17;;
60078;SDS011;45951;45.824;8.824;2023-04-03T20:09:20;5.75;;;3.45;;
60078;SDS011;45951;45.824;8.824;2023-04-03T20:15:22;5.40;;;2.92;;
60078;SDS011;45951;45.824;8.824;2023-04-03T20:21:26;5.90;;;3.07;;
60078;SDS011;45951;45.824;8.824;2023-04-03T20:27:28;9.30;;;3.50;;
60078;SDS011;45951;45.824;8.824;2023-04-03T20:33:29;7.25;;;3.47;;
60078;SDS011;45951;45.824;8.824;2023-04-03T20:39:29;5.95;;;2.85;;
60078;SDS011;45951;45.824;8.824;2023-04-03T20:45:30;5.45;;;3.20;;
60078;SDS011;45951;45.824;8.824;2023-04-03T20:51:31;8.75;;;3.40;;
60078;SDS011;45951;45.824;8.824;2023-04-03T20:57:34;8.18;;;3.10;;
60078;SDS011;45951;45.824;8.824;2023-04-03T21:03:35;6.63;;;3.13;;
60078;SDS011;45951;45.824;8.824;2023-04-03T21:22:14;6.72;;;3.25;;
60078;SDS011;45951;45.824;8.824;2023-04-03T21:28:15;6.15;;;3.30;;
60078;SDS011;45951;45.824;8.824;2023-04-03T21:34:17;9.25;;;2.40;;
60078;SDS011;45951;45.824;8.824;2023-04-03T21:40:18;7.32;;;3.00;;
60078;SDS011;45951;45.824;8.824;2023-04-03T21:46:19;6.72;;;2.90;;
60078;SDS011;45951;45.824;8.824;2023-04-03T21:52:20;4.70;;;2.80;;
60078;SDS011;45951;45.824;8.824;2023-04-03T21:58:21;4.67;;;2.67;;
60078;SDS011;45951;45.824;8.824;2023-04-03T22:04:26;3.47;;;2.30;;
60078;SDS011;45951;45.824;8.824;2023-04-03T22:10:28;4.72;;;2.70;;
60078;SDS011;45951;45.824;8.824;2023-04-03T22:16:29;5.22;;;2.30;;
60078;SDS011;45951;45.824;8.824;2023-04-03T22:22:30;3.72;;;2.40;;
60078;SDS011;45951;45.824;8.824;2023-04-03T22:28:31;6.55;;;3.08;;
60078;SDS011;45951;45.824;8.824;2023-04-03T22:34:38;4.07;;;2.20;;
60078;SDS011;45951;45.824;8.824;2023-04-03T22:40:40;4.22;;;2.30;;
60078;SDS011;45951;45.824;8.824;2023-04-03T22:46:47;6.82;;;2.60;;
60078;SDS011;45951;45.824;8.824;2023-04-03T22:52:47;4.18;;;2.20;;
60078;SDS011;45951;45.824;8.824;2023-04-03T22:58:47;3.85;;;1.90;;
60078;SDS011;45951;45.824;8.824;2023-04-03T23:04:48;4.53;;;2.28;;
60078;SDS011;45951;45.824;8.824;2023-04-03T23:10:49;3.55;;;2.10;;
60078;SDS011;45951;45.824;8.824;2023-04-03T23:16:53;4.90;;;2.33;;
60078;SDS011;45951;45.824;8.824;2023-04-03T23:22:53;2.90;;;1.90;;
60078;SDS011;45951;45.824;8.824;2023-04-03T23:28:53;5.70;;;2.10;;
60078;SDS011;45951;45.824;8.824;2023-04-03T23:34:54;3.37;;;2.07;;
60078;SDS011;45951;45.824;8.824;2023-04-03T23:40:54;4.82;;;2.05;;
60078;SDS011;45951;45.824;8.824;2023-04-03T23:46:54;4.78;;;2.20;;
60078;SDS011;45951;45.824;8.824;2023-04-03T23:52:56;3.90;;;2.33;;
60078;SDS011;45951;45.824;8.824;2023-04-03T23:58:57;3.92;;;2.10;;
